Time;durP1;ratioP1;P1;durP2;ratioP2;P2;SDS_P1;SDS_P2;PMS_P1;PMS_P2;Temp;Humidity;BMP_temperature;BMP_pressure;BME280_temperature;BME280_humidity;BME280_pressure;Samples;Min_cycle;Max_cycle;Signal;HPM_P1;HPM_P2
2023/01/20 00:00:26;;;;;;;24.52;12.95;;;;;;;;;;5038908;28;20040;-63
2023/01/20 00:02:52;;;;;;;26.15;13.35;;;;;;;;;;5040011;28;20037;-65
2023/01/20 00:05:17;;;;;;;15.43;9.55;;;;;;;;;;5039243;28;20056;-63
2023/01/20 00:07:43;;;;;;;18.20;11.30;;;;;;;;;;5039001;28;20024;-63
2023/01/20 00:10:09;;;;;;;17.38;11.68;;;;;;;;;;5041868;28;20055;-65
2023/01/20 00:12:35;;;;;;;19.88;12.27;;;;;;;;;;5040610;28;20033;-64
2023/01/20 00:15:01;;;;;;;24.00;11.85;;;;;;;;;;5040019;28;20036;-63
2023/01/20 00:17:26;;;;;;;26.73;14.07;;;;;;;;;;5041644;28;20033;-63
2023/01/20 00:19:52;;;;;;;26.23;14.38;;;;;;;;;;5040124;28;20542;-63
2023/01/20 00:22:18;;;;;;;22.52;14.65;;;;;;;;;;5036357;28;20094;-64
2023/01/20 00:24:43;;;;;;;20.08;13.18;;;;;;;;;;5037149;28;20129;-64
2023/01/20 00:27:09;;;;;;;18.02;11.32;;;;;;;;;;5035203;28;20400;-65
2023/01/20 00:29:34;;;;;;;14.43;10.70;;;;;;;;;;5021482;28;20061;-66
2023/01/20 00:32:01;;;;;;;23.60;13.52;;;;;;;;;;5038862;28;20037;-63
2023/01/20 00:34:26;;;;;;;20.88;12.48;;;;;;;;;;5037508;28;20033;-63
2023/01/20 00:36:52;;;;;;;18.40;12.52;;;;;;;;;;5040098;28;20389;-63
2023/01/20 00:39:17;;;;;;;19.05;13.07;;;;;;;;;;5039502;28;20025;-63
2023/01/20 00:41:43;;;;;;;20.33;12.85;;;;;;;;;;5038154;28;20079;-63
2023/01/20 00:44:08;;;;;;;19.80;13.25;;;;;;;;;;5037157;28;20041;-63
2023/01/20 00:46:34;;;;;;;21.95;13.68;;;;;;;;;;5039460;28;20025;-63
2023/01/20 00:49:00;;;;;;;25.98;14.85;;;;;;;;;;5029206;28;20040;-64
2023/01/20 00:51:25;;;;;;;26.80;15.38;;;;;;;;;;5038400;28;20032;-65
2023/01/20 00:53:51;;;;;;;19.10;13.18;;;;;;;;;;5040037;28;20390;-63
2023/01/20 00:56:16;;;;;;;21.33;12.98;;;;;;;;;;5044383;28;20036;-66
2023/01/20 00:58:44;;;;;;;20.25;13.18;;;;;;;;;;5041515;28;20041;-63
2023/01/20 01:01:10;;;;;;;25.17;14.13;;;;;;;;;;5042793;28;20433;-63
2023/01/20 01:03:35;;;;;;;19.48;13.45;;;;;;;;;;5045078;28;20438;-63
2023/01/20 01:06:15;;;;;;;21.05;13.35;;;;;;;;;;5040545;28;20033;-63
2023/01/20 01:08:41;;;;;;;21.02;13.55;;;;;;;;;;5042992;28;20102;-63
2023/01/20 01:11:07;;;;;;;18.23;12.77;;;;;;;;;;5026072;28;20483;-63
2023/01/20 01:13:32;;;;;;;19.77;13.23;;;;;;;;;;5031347;28;20041;-63
2023/01/20 01:15:58;;;;;;;24.02;13.75;;;;;;;;;;5031896;28;20446;-63
2023/01/20 01:18:23;;;;;;;21.02;12.80;;;;;;;;;;5033306;28;20100;-63
2023/01/20 01:20:49;;;;;;;20.40;14.07;;;;;;;;;;5043227;28;20115;-64
2023/01/20 01:23:15;;;;;;;21.38;13.68;;;;;;;;;;5041572;28;20500;-64
2023/01/20 01:25:40;;;;;;;22.55;14.40;;;;;;;;;;5037280;28;20040;-64
2023/01/20 01:28:06;;;;;;;28.35;14.88;;;;;;;;;;5032739;28;20461;-64
2023/01/20 01:30:32;;;;;;;18.88;13.70;;;;;;;;;;5041351;28;20037;-64
2023/01/20 01:32:58;;;;;;;18.15;12.88;;;;;;;;;;5038467;28;20034;-64
2023/01/20 01:35:23;;;;;;;19.52;12.40;;;;;;;;;;5036287;28;20102;-63
2023/01/20 01:37:49;;;;;;;20.10;13.23;;;;;;;;;;5036408;28;20737;-64
2023/01/20 01:40:15;;;;;;;19.17;12.32;;;;;;;;;;5035930;28;20038;-64
2023/01/20 01:42:40;;;;;;;19.00;12.13;;;;;;;;;;5031650;28;20036;-64
2023/01/20 01:45:09;;;;;;;22.05;13.48;;;;;;;;;;5039898;28;20041;-64
2023/01/20 01:47:37;;;;;;;21.65;12.95;;;;;;;;;;5042375;28;20037;-64
2023/01/20 01:50:04;;;;;;;18.80;12.70;;;;;;;;;;5035371;28;20048;-64
2023/01/20 01:52:31;;;;;;;18.65;12.85;;;;;;;;;;5034268;28;20048;-64
2023/01/20 01:54:57;;;;;;;21.70;13.70;;;;;;;;;;5030616;28;20045;-64
2023/01/20 01:57:23;;;;;;;21.63;13.50;;;;;;;;;;5039066;28;20033;-64
2023/01/20 01:59:50;;;;;;;23.40;13.55;;;;;;;;;;5037146;28;20136;-64
2023/01/20 02:02:15;;;;;;;20.38;13.40;;;;;;;;;;5033522;28;20500;-64
2023/01/20 02:04:41;;;;;;;18.65;12.70;;;;;;;;;;5035283;28;20037;-64
2023/01/20 02:07:14;;;;;;;22.10;13.20;;;;;;;;;;5038160;28;20495;-65
2023/01/20 02:09:40;;;;;;;17.08;12.30;;;;;;;;;;5030179;28;20041;-66
2023/01/20 02:12:13;;;;;;;18.48;13.90;;;;;;;;;;5034139;28;20069;-63
2023/01/20 02:14:47;;;;;;;24.15;14.95;;;;;;;;;;5039672;28;20037;-66
2023/01/20 02:17:32;;;;;;;19.50;13.80;;;;;;;;;;5041228;28;20036;-66
2023/01/20 02:20:00;;;;;;;21.95;12.98;;;;;;;;;;5030406;28;20061;-65
2023/01/20 02:22:28;;;;;;;19.17;12.40;;;;;;;;;;5039434;28;20078;-64
2023/01/20 02:25:26;;;;;;;16.50;12.33;;;;;;;;;;5041376;28;20132;-65
2023/01/20 02:27:52;;;;;;;21.40;13.25;;;;;;;;;;5025041;28;20366;-64
2023/01/20 02:30:40;;;;;;;23.63;13.00;;;;;;;;;;5032550;28;20579;-64
2023/01/20 02:33:14;;;;;;;19.13;11.95;;;;;;;;;;5034790;28;20400;-64
2023/01/20 02:35:45;;;;;;;22.80;12.63;;;;;;;;;;5035491;28;20051;-64
2023/01/20 02:38:35;;;;;;;18.17;12.93;;;;;;;;;;5032038;28;20154;-63
2023/01/20 02:41:10;;;;;;;21.67;13.32;;;;;;;;;;5046580;28;20041;-63
2023/01/20 02:43:45;;;;;;;24.30;14.00;;;;;;;;;;5033506;28;20026;-64
2023/01/20 02:46:21;;;;;;;22.88;13.43;;;;;;;;;;5029267;28;20136;-64
2023/01/20 02:48:47;;;;;;;21.45;12.52;;;;;;;;;;5036361;28;20032;-64
2023/01/20 02:51:31;;;;;;;20.83;13.18;;;;;;;;;;5043062;28;20392;-64
2023/01/20 02:54:05;;;;;;;20.85;13.88;;;;;;;;;;5030569;28;20076;-63
2023/01/20 02:56:33;;;;;;;20.25;12.27;;;;;;;;;;5032833;28;20079;-63
2023/01/20 02:59:01;;;;;;;23.10;13.75;;;;;;;;;;5038720;28;20052;-66
2023/01/20 03:01:49;;;;;;;19.85;13.05;;;;;;;;;;5030268;28;20048;-64
2023/01/20 03:04:19;;;;;;;21.50;12.55;;;;;;;;;;5032056;28;20403;-64
2023/01/20 03:06:53;;;;;;;17.98;12.85;;;;;;;;;;5039259;28;20129;-64
2023/01/20 03:09:24;;;;;;;21.20;13.50;;;;;;;;;;5030805;28;20087;-66
2023/01/20 03:11:59;;;;;;;19.13;13.20;;;;;;;;;;5032140;28;20032;-64
2023/01/20 03:14:25;;;;;;;19.80;12.90;;;;;;;;;;5045092;28;20041;-65
2023/01/20 03:16:51;;;;;;;27.42;15.57;;;;;;;;;;5031456;28;20099;-64
2023/01/20 03:19:17;;;;;;;26.05;14.15;;;;;;;;;;5035618;28;20052;-64
2023/01/20 03:21:43;;;;;;;23.77;16.55;;;;;;;;;;5037904;28;20033;-64
2023/01/20 03:24:09;;;;;;;27.38;16.42;;;;;;;;;;5033722;28;20029;-64
2023/01/20 03:26:36;;;;;;;24.67;16.48;;;;;;;;;;5032105;28;20044;-64
2023/01/20 03:29:05;;;;;;;27.15;16.08;;;;;;;;;;5035860;28;20087;-64
2023/01/20 03:31:46;;;;;;;27.05;17.50;;;;;;;;;;5027229;28;20036;-65
2023/01/20 03:34:17;;;;;;;32.55;17.52;;;;;;;;;;5031218;28;20390;-64
2023/01/20 03:36:43;;;;;;;29.05;17.73;;;;;;;;;;5034646;28;20456;-65
2023/01/20 03:39:09;;;;;;;27.73;17.85;;;;;;;;;;5035652;28;20033;-63
2023/01/20 03:41:41;;;;;;;30.67;19.15;;;;;;;;;;5031503;28;20045;-63
2023/01/20 03:44:42;;;;;;;30.92;18.20;;;;;;;;;;5035288;28;20797;-63
2023/01/20 03:47:22;;;;;;;27.38;17.50;;;;;;;;;;4968415;28;20106;-65
2023/01/20 03:49:57;;;;;;;30.30;16.38;;;;;;;;;;4972515;28;20769;-64
2023/01/20 03:52:35;;;;;;;25.35;16.48;;;;;;;;;;4968701;28;20625;-64
2023/01/20 03:55:09;;;;;;;32.65;18.90;;;;;;;;;;4968584;28;20046;-64
2023/01/20 03:57:40;;;;;;;29.42;19.17;;;;;;;;;;4982257;28;20106;-64
2023/01/20 04:00:08;;;;;;;35.05;19.45;;;;;;;;;;4981026;28;20046;-64
2023/01/20 04:02:39;;;;;;;34.40;20.73;;;;;;;;;;4976161;28;20070;-66
2023/01/20 04:05:06;;;;;;;33.60;20.33;;;;;;;;;;4980070;28;20050;-66
2023/01/20 04:07:33;;;;;;;32.63;19.35;;;;;;;;;;4968061;28;20030;-64
2023/01/20 04:10:08;;;;;;;30.67;18.90;;;;;;;;;;4964356;28;21583;-64
2023/01/20 04:12:33;;;;;;;29.98;19.85;;;;;;;;;;4973019;28;20042;-64
2023/01/20 04:14:59;;;;;;;29.35;19.00;;;;;;;;;;4974311;28;20038;-64
2023/01/20 04:17:28;;;;;;;24.52;16.70;;;;;;;;;;4967683;28;20134;-65
2023/01/20 04:19:55;;;;;;;30.77;18.27;;;;;;;;;;4980278;28;20149;-64
2023/01/20 04:22:32;;;;;;;23.40;16.90;;;;;;;;;;4968465;28;20038;-64
2023/01/20 04:25:23;;;;;;;25.20;16.98;;;;;;;;;;5042867;28;20118;-64
2023/01/20 04:27:48;;;;;;;28.98;16.60;;;;;;;;;;5047113;28;20120;-66
2023/01/20 04:30:14;;;;;;;25.95;16.20;;;;;;;;;;5048190;28;20147;-65
2023/01/20 04:32:40;;;;;;;23.33;15.80;;;;;;;;;;5042718;28;20067;-64
2023/01/20 04:35:05;;;;;;;28.05;15.38;;;;;;;;;;5038996;28;20164;-64
2023/01/20 04:37:31;;;;;;;25.38;16.15;;;;;;;;;;5035299;28;20030;-66
2023/01/20 04:39:57;;;;;;;27.15;16.42;;;;;;;;;;5037884;28;20037;-64
2023/01/20 04:42:22;;;;;;;23.38;15.60;;;;;;;;;;5036960;28;20475;-64
2023/01/20 04:44:48;;;;;;;26.13;16.77;;;;;;;;;;5036573;28;20036;-65
2023/01/20 04:47:13;;;;;;;23.40;15.18;;;;;;;;;;5039347;28;20038;-64
2023/01/20 04:49:39;;;;;;;21.58;14.50;;;;;;;;;;5040367;28;20544;-64
2023/01/20 04:52:04;;;;;;;22.98;14.20;;;;;;;;;;5036858;28;20033;-64
2023/01/20 04:54:30;;;;;;;22.95;14.20;;;;;;;;;;5033467;28;20045;-63
2023/01/20 04:56:55;;;;;;;20.88;14.50;;;;;;;;;;5034488;28;20040;-64
2023/01/20 04:59:21;;;;;;;24.48;14.35;;;;;;;;;;5031965;28;20048;-64
2023/01/20 05:01:46;;;;;;;24.02;15.70;;;;;;;;;;5040739;28;20033;-65
2023/01/20 05:04:12;;;;;;;23.90;14.88;;;;;;;;;;5028898;28;20033;-66
2023/01/20 05:06:41;;;;;;;22.67;14.10;;;;;;;;;;5033201;28;20061;-64
2023/01/20 05:09:12;;;;;;;24.70;16.25;;;;;;;;;;5038438;28;20041;-66
2023/01/20 05:11:37;;;;;;;24.25;15.52;;;;;;;;;;5034422;28;20034;-64
2023/01/20 05:14:03;;;;;;;24.17;14.57;;;;;;;;;;5034855;28;20033;-64
2023/01/20 05:16:30;;;;;;;30.30;19.23;;;;;;;;;;5034303;28;20036;-64
2023/01/20 05:18:56;;;;;;;32.80;19.85;;;;;;;;;;5038530;28;20064;-64
2023/01/20 05:21:22;;;;;;;35.40;20.80;;;;;;;;;;5034036;28;20413;-64
2023/01/20 05:23:48;;;;;;;28.70;19.23;;;;;;;;;;5041151;28;20041;-64
2023/01/20 05:26:13;;;;;;;39.33;22.83;;;;;;;;;;5034137;28;20040;-65
2023/01/20 05:28:41;;;;;;;34.58;19.48;;;;;;;;;;5045260;28;20036;-64
2023/01/20 05:31:07;;;;;;;42.50;24.40;;;;;;;;;;5039939;28;20041;-64
2023/01/20 05:33:34;;;;;;;47.30;26.30;;;;;;;;;;5031884;28;20045;-65
2023/01/20 05:36:04;;;;;;;33.38;21.33;;;;;;;;;;5040657;28;20041;-66
2023/01/20 05:38:29;;;;;;;28.35;18.30;;;;;;;;;;5033441;28;20029;-64
2023/01/20 05:40:59;;;;;;;35.22;17.85;;;;;;;;;;5032228;28;20491;-64
2023/01/20 05:43:25;;;;;;;24.98;17.27;;;;;;;;;;5032392;28;20097;-64
2023/01/20 05:45:50;;;;;;;24.50;15.73;;;;;;;;;;5035134;28;20029;-64
2023/01/20 05:48:16;;;;;;;26.73;17.05;;;;;;;;;;5032363;28;20030;-64
2023/01/20 05:50:42;;;;;;;27.08;16.58;;;;;;;;;;5031746;28;20104;-64
2023/01/20 05:53:07;;;;;;;29.52;18.30;;;;;;;;;;5044162;28;20044;-64
2023/01/20 05:55:33;;;;;;;24.15;15.73;;;;;;;;;;5039255;28;20029;-64
2023/01/20 05:58:01;;;;;;;31.45;15.43;;;;;;;;;;5034845;28;20064;-65
2023/01/20 06:00:27;;;;;;;25.48;17.52;;;;;;;;;;5033035;28;20536;-64
2023/01/20 06:02:53;;;;;;;14.50;10.80;;;;;;;;;;5037727;28;20051;-64
2023/01/20 06:05:18;;;;;;;28.65;16.77;;;;;;;;;;5041979;28;20037;-63
2023/01/20 06:07:44;;;;;;;26.67;16.90;;;;;;;;;;5042144;28;20077;-64
2023/01/20 06:10:10;;;;;;;27.95;16.88;;;;;;;;;;5032586;28;20029;-66
2023/01/20 06:12:36;;;;;;;34.45;17.48;;;;;;;;;;5040456;28;20499;-66
2023/01/20 06:15:02;;;;;;;30.45;18.10;;;;;;;;;;5041995;28;20029;-64
2023/01/20 06:17:27;;;;;;;23.13;15.82;;;;;;;;;;5032132;28;20033;-66
2023/01/20 06:19:53;;;;;;;28.40;17.02;;;;;;;;;;5035471;28;20049;-64
2023/01/20 06:22:19;;;;;;;26.83;16.80;;;;;;;;;;5041431;28;20055;-65
2023/01/20 06:24:46;;;;;;;18.85;12.88;;;;;;;;;;5030689;28;20068;-65
2023/01/20 06:27:11;;;;;;;28.02;18.02;;;;;;;;;;5032773;28;20065;-64
2023/01/20 06:29:37;;;;;;;30.67;17.02;;;;;;;;;;5038429;28;20390;-65
2023/01/20 06:32:03;;;;;;;19.35;12.35;;;;;;;;;;5039044;28;20117;-64
2023/01/20 06:34:29;;;;;;;23.17;13.98;;;;;;;;;;5033440;28;20438;-65
2023/01/20 06:36:55;;;;;;;24.10;16.10;;;;;;;;;;5030396;28;20362;-65
2023/01/20 06:39:20;;;;;;;19.73;13.70;;;;;;;;;;5034222;28;20473;-66
2023/01/20 06:41:46;;;;;;;22.88;14.60;;;;;;;;;;5040300;28;20068;-64
2023/01/20 06:44:11;;;;;;;13.68;10.93;;;;;;;;;;5035859;28;20323;-64
2023/01/20 06:46:37;;;;;;;31.55;19.65;;;;;;;;;;5028455;28;20033;-64
2023/01/20 06:49:02;;;;;;;19.98;13.30;;;;;;;;;;5030898;28;20060;-64
2023/01/20 06:51:29;;;;;;;24.02;16.17;;;;;;;;;;5035065;28;20099;-64
2023/01/20 06:53:56;;;;;;;27.25;15.20;;;;;;;;;;5031845;28;20072;-63
2023/01/20 06:56:22;;;;;;;22.85;15.90;;;;;;;;;;5033055;28;20440;-64
2023/01/20 06:58:48;;;;;;;22.10;13.65;;;;;;;;;;5037138;28;20116;-64
2023/01/20 07:01:17;;;;;;;28.33;15.85;;;;;;;;;;5032748;28;20531;-65
2023/01/20 07:03:43;;;;;;;;;;;;;;;;;;5032801;28;20100;-64
2023/01/20 07:06:27;;;;;;;18.23;12.63;;;;;;;;;;5035140;28;19917;-64
2023/01/20 07:08:53;;;;;;;20.95;14.05;;;;;;;;;;5038739;28;20631;-63
2023/01/20 07:11:19;;;;;;;23.20;14.25;;;;;;;;;;5016612;28;20033;-64
2023/01/20 07:13:44;;;;;;;19.88;13.73;;;;;;;;;;5033246;28;20035;-64
2023/01/20 07:16:10;;;;;;;23.70;14.88;;;;;;;;;;5045448;28;20098;-63
2023/01/20 07:18:36;;;;;;;19.55;14.43;;;;;;;;;;5033013;28;20076;-64
2023/01/20 07:21:03;;;;;;;21.70;13.05;;;;;;;;;;5032019;28;20045;-63
2023/01/20 07:23:32;;;;;;;26.92;15.32;;;;;;;;;;5038677;28;20033;-63
2023/01/20 07:26:04;;;;;;;20.65;14.27;;;;;;;;;;5036232;28;20030;-63
2023/01/20 07:28:30;;;;;;;20.40;14.05;;;;;;;;;;5031456;28;20068;-63
2023/01/20 07:31:08;;;;;;;22.65;14.23;;;;;;;;;;5038121;28;20477;-64
2023/01/20 07:33:34;;;;;;;23.20;14.00;;;;;;;;;;5028975;28;20116;-66
2023/01/20 07:36:00;;;;;;;19.05;13.73;;;;;;;;;;5035211;28;20509;-65
2023/01/20 07:38:27;;;;;;;19.60;13.45;;;;;;;;;;5029815;28;20079;-63
2023/01/20 07:40:56;;;;;;;22.77;13.30;;;;;;;;;;5034372;28;20049;-63
2023/01/20 07:43:21;;;;;;;23.42;12.82;;;;;;;;;;5031873;28;20052;-64
2023/01/20 07:45:47;;;;;;;17.73;13.27;;;;;;;;;;5034485;28;20037;-64
2023/01/20 07:48:12;;;;;;;20.05;13.82;;;;;;;;;;5037802;28;20483;-63
2023/01/20 07:50:38;;;;;;;24.55;13.85;;;;;;;;;;5040677;28;20033;-64
2023/01/20 07:53:04;;;;;;;20.77;15.75;;;;;;;;;;5028982;28;20045;-64
2023/01/20 07:55:30;;;;;;;29.38;17.25;;;;;;;;;;5036010;28;20496;-64
2023/01/20 07:57:57;;;;;;;27.08;18.63;;;;;;;;;;5035475;28;20042;-64
2023/01/20 08:00:23;;;;;;;27.63;18.23;;;;;;;;;;5045242;28;20297;-63
2023/01/20 08:02:48;;;;;;;31.23;17.50;;;;;;;;;;5039598;28;20045;-63
2023/01/20 08:05:14;;;;;;;26.55;17.25;;;;;;;;;;5035122;28;20124;-63
2023/01/20 08:07:40;;;;;;;30.63;17.08;;;;;;;;;;5034438;28;20400;-63
2023/01/20 08:10:06;;;;;;;25.80;16.45;;;;;;;;;;5034343;28;20031;-64
2023/01/20 08:12:31;;;;;;;27.50;16.45;;;;;;;;;;5035104;28;20108;-65
2023/01/20 08:14:57;;;;;;;81.03;38.30;;;;;;;;;;5039143;28;20475;-64
2023/01/20 08:17:23;;;;;;;34.08;20.58;;;;;;;;;;5046989;28;20642;-64
2023/01/20 08:19:48;;;;;;;23.98;14.77;;;;;;;;;;5046291;28;20039;-64
2023/01/20 08:22:15;;;;;;;27.77;17.80;;;;;;;;;;5035100;28;20029;-63
2023/01/20 08:24:40;;;;;;;32.95;20.63;;;;;;;;;;5041800;28;20545;-63
2023/01/20 08:27:06;;;;;;;29.77;19.83;;;;;;;;;;5038045;28;20037;-64
2023/01/20 08:29:32;;;;;;;32.30;18.40;;;;;;;;;;5035716;28;20045;-64
2023/01/20 08:31:59;;;;;;;23.83;16.42;;;;;;;;;;5039948;28;21294;-64
2023/01/20 08:34:25;;;;;;;21.17;14.45;;;;;;;;;;5035939;28;20041;-63
2023/01/20 08:36:52;;;;;;;23.05;15.43;;;;;;;;;;5043183;28;20033;-64
2023/01/20 08:39:19;;;;;;;20.08;13.60;;;;;;;;;;5032213;28;20038;-63
2023/01/20 08:41:46;;;;;;;29.70;13.60;;;;;;;;;;5046960;28;20063;-63
2023/01/20 08:44:13;;;;;;;19.83;13.93;;;;;;;;;;5035565;28;20087;-63
2023/01/20 08:46:39;;;;;;;48.20;25.90;;;;;;;;;;5045354;28;20025;-64
2023/01/20 08:49:15;;;;;;;23.85;14.77;;;;;;;;;;5042934;28;20090;-63
2023/01/20 08:51:43;;;;;;;20.13;14.50;;;;;;;;;;5047603;28;20036;-64
2023/01/20 08:54:08;;;;;;;23.67;16.60;;;;;;;;;;5038501;28;20043;-63
2023/01/20 08:56:35;;;;;;;23.42;15.80;;;;;;;;;;5034503;28;20040;-63
2023/01/20 08:59:02;;;;;;;22.67;15.27;;;;;;;;;;5033923;28;20545;-64
2023/01/20 09:01:32;;;;;;;19.65;14.00;;;;;;;;;;5046592;28;20434;-63
2023/01/20 09:03:58;;;;;;;22.33;14.25;;;;;;;;;;5035374;28;20128;-63
2023/01/20 09:06:26;;;;;;;17.60;13.27;;;;;;;;;;5036473;28;20116;-63
2023/01/20 09:08:52;;;;;;;20.52;14.18;;;;;;;;;;5038518;28;20045;-66
2023/01/20 09:11:23;;;;;;;21.98;14.23;;;;;;;;;;5032591;28;20473;-63
2023/01/20 09:13:49;;;;;;;21.80;14.43;;;;;;;;;;5033763;28;20026;-63
2023/01/20 09:16:16;;;;;;;24.27;15.63;;;;;;;;;;5038933;28;20030;-63
2023/01/20 09:18:43;;;;;;;33.03;14.57;;;;;;;;;;5042345;28;20071;-63
2023/01/20 09:21:09;;;;;;;21.60;13.80;;;;;;;;;;5033913;28;20477;-65
2023/01/20 09:23:37;;;;;;;23.80;14.57;;;;;;;;;;5032881;28;20302;-62
2023/01/20 09:26:05;;;;;;;23.40;16.67;;;;;;;;;;5034942;28;20040;-63
2023/01/20 09:28:31;;;;;;;27.80;17.00;;;;;;;;;;5031546;28;20125;-63
2023/01/20 09:31:05;;;;;;;24.20;15.90;;;;;;;;;;5034393;28;20478;-63
2023/01/20 09:33:34;;;;;;;22.58;15.27;;;;;;;;;;5035902;28;20052;-63
2023/01/20 09:36:00;;;;;;;21.17;14.65;;;;;;;;;;5033745;28;20045;-63
2023/01/20 09:44:18;;;;;;;23.92;13.45;;;;;;;;;;5039101;28;20052;-63
2023/01/20 09:47:18;;;;;;;27.30;14.93;;;;;;;;;;5031936;28;20036;-63
2023/01/20 09:53:01;;;;;;;17.52;13.02;;;;;;;;;;5034915;28;20037;-63
2023/01/20 09:55:49;;;;;;;20.52;13.82;;;;;;;;;;5039270;28;20116;-66
2023/01/20 09:58:30;;;;;;;25.05;15.50;;;;;;;;;;5038415;28;20033;-65
2023/01/20 10:01:02;;;;;;;26.40;15.80;;;;;;;;;;5033749;28;20068;-63
2023/01/20 10:03:40;;;;;;;21.95;15.50;;;;;;;;;;5035960;28;20040;-64
2023/01/20 10:06:13;;;;;;;20.00;14.20;;;;;;;;;;5045894;28;20029;-63
2023/01/20 10:08:50;;;;;;;21.50;12.57;;;;;;;;;;5037720;28;20068;-63
2023/01/20 10:11:19;;;;;;;16.88;12.68;;;;;;;;;;5041272;28;20071;-64
2023/01/20 10:13:50;;;;;;;21.15;13.20;;;;;;;;;;5042381;28;20095;-63
2023/01/20 10:16:28;;;;;;;16.73;12.07;;;;;;;;;;5032277;28;20041;-63
2023/01/20 10:19:00;;;;;;;18.15;12.60;;;;;;;;;;5034235;28;20627;-63
2023/01/20 10:21:32;;;;;;;18.15;12.45;;;;;;;;;;5043732;28;20491;-63
2023/01/20 10:24:27;;;;;;;15.73;11.88;;;;;;;;;;5030805;28;20559;-63
2023/01/20 10:27:00;;;;;;;20.92;12.82;;;;;;;;;;5031945;28;20038;-62
2023/01/20 10:29:35;;;;;;;17.85;13.30;;;;;;;;;;5033723;28;20104;-63
2023/01/20 10:32:07;;;;;;;18.70;12.07;;;;;;;;;;5036577;28;20356;-62
2023/01/20 10:34:46;;;;;;;20.23;10.80;;;;;;;;;;5037164;28;20044;-63
2023/01/20 10:37:14;;;;;;;;;;;;;;;;;;5031840;28;20041;-63
2023/01/20 10:39:46;;;;;;;15.88;11.93;;;;;;;;;;5034544;28;20447;-63
2023/01/20 10:42:14;;;;;;;15.45;10.65;;;;;;;;;;5032169;28;20095;-63
2023/01/20 10:44:40;;;;;;;18.17;12.25;;;;;;;;;;5033753;28;20029;-63
2023/01/20 10:47:12;;;;;;;18.85;11.18;;;;;;;;;;5031853;28;20028;-63
2023/01/20 10:49:52;;;;;;;16.05;10.93;;;;;;;;;;5042985;28;20056;-63
2023/01/20 10:52:40;;;;;;;13.32;10.48;;;;;;;;;;5033218;28;20041;-63
2023/01/20 10:55:30;;;;;;;14.43;10.13;;;;;;;;;;5041996;28;20033;-62
2023/01/20 10:58:18;;;;;;;15.88;10.77;;;;;;;;;;5039111;28;20380;-61
2023/01/20 11:00:44;;;;;;;16.15;11.38;;;;;;;;;;5028823;28;20037;-62
2023/01/20 11:03:15;;;;;;;13.57;10.85;;;;;;;;;;5034429;28;20056;-60
2023/01/20 11:05:41;;;;;;;12.95;10.30;;;;;;;;;;5036109;28;20481;-62
2023/01/20 11:08:22;;;;;;;20.42;11.68;;;;;;;;;;5034501;28;20132;-61
2023/01/20 11:10:52;;;;;;;13.43;10.43;;;;;;;;;;5048398;28;20109;-65
2023/01/20 11:13:18;;;;;;;12.82;10.15;;;;;;;;;;5032592;28;20029;-62
2023/01/20 11:15:46;;;;;;;12.40;10.02;;;;;;;;;;5039117;28;20040;-62
2023/01/20 11:18:15;;;;;;;11.70;9.63;;;;;;;;;;5040358;28;20030;-63
2023/01/20 11:21:04;;;;;;;12.43;10.10;;;;;;;;;;5037929;28;20041;-63
2023/01/20 11:23:39;;;;;;;13.77;10.02;;;;;;;;;;5023609;28;20048;-62
2023/01/20 11:26:15;;;;;;;11.02;9.75;;;;;;;;;;5042266;28;20076;-66
2023/01/20 11:29:02;;;;;;;15.15;10.43;;;;;;;;;;5032688;28;20186;-64
2023/01/20 11:31:50;;;;;;;11.52;10.30;;;;;;;;;;5031752;28;20034;-64
2023/01/20 11:34:30;;;;;;;12.45;10.00;;;;;;;;;;5037559;28;20033;-64
2023/01/20 11:37:05;;;;;;;15.10;10.52;;;;;;;;;;5038039;28;20072;-64
2023/01/20 11:39:41;;;;;;;12.25;10.30;;;;;;;;;;5036425;28;20060;-65
2023/01/20 11:42:24;;;;;;;15.55;10.88;;;;;;;;;;5041980;28;20040;-64
2023/01/20 11:44:51;;;;;;;12.43;9.32;;;;;;;;;;5042845;28;20685;-64
2023/01/20 11:47:35;;;;;;;11.95;9.05;;;;;;;;;;5038434;28;20037;-64
2023/01/20 11:50:03;;;;;;;10.52;8.80;;;;;;;;;;5036777;28;20041;-64
2023/01/20 11:52:38;;;;;;;10.32;8.68;;;;;;;;;;5040637;28;20040;-64
2023/01/20 11:55:16;;;;;;;14.07;9.98;;;;;;;;;;5039318;28;20235;-65
2023/01/20 11:57:51;;;;;;;11.35;8.75;;;;;;;;;;5038948;28;20037;-64
2023/01/20 12:00:17;;;;;;;11.13;8.50;;;;;;;;;;5036754;28;20334;-65
2023/01/20 12:02:44;;;;;;;12.63;8.57;;;;;;;;;;5024655;28;20114;-64
2023/01/20 12:05:17;;;;;;;9.60;8.57;;;;;;;;;;5038147;28;20036;-65
2023/01/20 12:07:45;;;;;;;12.70;8.02;;;;;;;;;;5035706;28;20540;-64
2023/01/20 12:10:28;;;;;;;10.45;8.05;;;;;;;;;;5036576;28;20099;-65
2023/01/20 12:13:23;;;;;;;12.50;8.55;;;;;;;;;;5034878;28;20045;-65
2023/01/20 12:15:55;;;;;;;12.00;8.45;;;;;;;;;;5033221;28;20044;-65
2023/01/20 12:18:41;;;;;;;9.25;8.30;;;;;;;;;;5039101;28;20095;-65
2023/01/20 12:21:17;;;;;;;9.88;8.35;;;;;;;;;;5032271;28;20052;-65
2023/01/20 12:23:49;;;;;;;8.48;7.07;;;;;;;;;;5026382;28;20113;-65
2023/01/20 12:26:17;;;;;;;75.00;20.88;;;;;;;;;;5037402;28;20037;-65
2023/01/20 12:28:47;;;;;;;13.85;8.68;;;;;;;;;;5032152;28;20037;-65
2023/01/20 12:31:18;;;;;;;11.98;8.32;;;;;;;;;;5040971;28;20136;-65
2023/01/20 12:33:48;;;;;;;8.88;7.50;;;;;;;;;;5035381;28;20032;-65
2023/01/20 12:36:29;;;;;;;14.60;10.68;;;;;;;;;;5039789;28;20033;-65
2023/01/20 12:38:55;;;;;;;13.45;8.77;;;;;;;;;;5041786;28;20060;-65
2023/01/20 12:41:39;;;;;;;13.27;8.93;;;;;;;;;;5030846;28;20041;-65
2023/01/20 12:44:31;;;;;;;25.15;14.63;;;;;;;;;;5032073;28;20243;-65
2023/01/20 12:47:11;;;;;;;11.00;7.85;;;;;;;;;;5026243;28;20045;-65
2023/01/20 12:49:42;;;;;;;12.07;8.95;;;;;;;;;;5038395;28;20072;-65
2023/01/20 12:52:31;;;;;;;7.25;6.15;;;;;;;;;;5042538;28;20037;-65
2023/01/20 12:54:57;;;;;;;10.63;7.05;;;;;;;;;;5030196;28;20401;-65
2023/01/20 12:57:38;;;;;;;8.73;7.00;;;;;;;;;;5032843;28;20036;-64
2023/01/20 13:00:26;;;;;;;14.10;8.38;;;;;;;;;;5039523;28;20072;-65
2023/01/20 13:03:17;;;;;;;15.57;8.35;;;;;;;;;;5031541;28;20096;-65
2023/01/20 13:06:16;;;;;;;9.52;6.97;;;;;;;;;;5030852;28;20032;-64
2023/01/20 13:09:14;;;;;;;15.30;9.85;;;;;;;;;;5040861;28;20120;-65
2023/01/20 13:11:58;;;;;;;9.77;6.63;;;;;;;;;;4978207;28;20048;-64
2023/01/20 13:14:32;;;;;;;10.75;7.72;;;;;;;;;;5036705;28;20083;-65
2023/01/20 13:17:17;;;;;;;9.82;7.20;;;;;;;;;;5035252;28;20048;-64
2023/01/20 13:19:48;;;;;;;8.23;5.57;;;;;;;;;;5022768;28;20053;-64
2023/01/20 13:22:20;;;;;;;18.40;10.93;;;;;;;;;;5036472;28;20041;-65
2023/01/20 13:24:51;;;;;;;8.30;7.25;;;;;;;;;;5031256;28;20033;-64
2023/01/20 13:27:25;;;;;;;9.07;6.10;;;;;;;;;;5039760;28;20502;-64
2023/01/20 13:29:54;;;;;;;12.80;8.80;;;;;;;;;;5030286;28;20033;-64
2023/01/20 13:32:27;;;;;;;9.60;7.97;;;;;;;;;;5033214;28;20468;-66
2023/01/20 13:34:54;;;;;;;9.60;6.82;;;;;;;;;;5034069;28;20420;-65
2023/01/20 13:37:36;;;;;;;8.30;6.38;;;;;;;;;;5038456;28;20037;-65
2023/01/20 13:40:04;;;;;;;10.13;6.22;;;;;;;;;;5032573;28;20036;-65
2023/01/20 13:42:36;;;;;;;8.82;6.50;;;;;;;;;;5031185;28;20044;-66
2023/01/20 13:45:10;;;;;;;8.48;5.60;;;;;;;;;;5041402;28;20033;-64
2023/01/20 13:47:59;;;;;;;9.43;6.40;;;;;;;;;;5031693;28;20156;-64
2023/01/20 13:50:36;;;;;;;13.77;7.28;;;;;;;;;;5028459;28;20099;-63
2023/01/20 13:53:14;;;;;;;11.57;6.38;;;;;;;;;;5037773;28;20092;-63
2023/01/20 13:55:39;;;;;;;11.90;7.80;;;;;;;;;;5034070;28;20263;-65
2023/01/20 13:58:24;;;;;;;14.70;6.70;;;;;;;;;;5030787;28;20053;-63
2023/01/20 14:00:58;;;;;;;14.35;8.75;;;;;;;;;;5033594;28;20034;-65
2023/01/20 14:03:34;;;;;;;9.98;7.15;;;;;;;;;;5036524;28;20060;-65
2023/01/20 14:06:18;;;;;;;11.55;7.25;;;;;;;;;;5032311;28;20060;-65
2023/01/20 14:08:49;;;;;;;14.23;8.57;;;;;;;;;;5037789;28;20314;-63
2023/01/20 14:11:23;;;;;;;9.57;7.72;;;;;;;;;;5036166;28;20033;-63
2023/01/20 14:13:55;;;;;;;6.88;6.18;;;;;;;;;;5028719;28;20131;-64
2023/01/20 14:16:27;;;;;;;6.88;5.50;;;;;;;;;;5032279;28;20049;-64
2023/01/20 14:18:56;;;;;;;7.82;6.07;;;;;;;;;;5040570;28;20447;-63
2023/01/20 14:21:26;;;;;;;;;;;;;;;;;;5035079;28;20119;-63
2023/01/20 14:23:51;;;;;;;7.28;6.05;;;;;;;;;;5030688;28;19959;-63
2023/01/20 14:26:22;;;;;;;9.95;7.25;;;;;;;;;;5033717;28;20072;-64
2023/01/20 14:28:51;;;;;;;13.30;7.68;;;;;;;;;;5031868;28;20033;-63
2023/01/20 14:31:27;;;;;;;10.50;7.10;;;;;;;;;;5037864;28;20102;-63
2023/01/20 14:33:55;;;;;;;9.18;7.28;;;;;;;;;;5029360;28;20030;-63
2023/01/20 14:36:22;;;;;;;11.48;7.38;;;;;;;;;;5030159;28;20426;-63
2023/01/20 14:38:52;;;;;;;8.80;7.03;;;;;;;;;;5030029;28;20102;-65
2023/01/20 14:41:28;;;;;;;;;;;;;;;;;;5035318;28;20079;-63
2023/01/20 14:43:54;;;;;;;7.43;5.20;;;;;;;;;;5031676;28;19928;-63
2023/01/20 14:46:20;;;;;;;7.72;5.65;;;;;;;;;;5041714;28;20120;-64
2023/01/20 14:48:47;;;;;;;8.75;6.40;;;;;;;;;;5032442;28;20112;-66